TS90 weather

Bayless Airport
Rosharon, Texas, United States

Public forecast

Using degrees Fahrenheit for public forecast. Weather courtesy of forecast.io.

Closest aviation weather report (METAR) to Bayless Airport

Closest report is Houston Southwest Airport, 6.7 nm (12.3 km) NNW. Retrieved 2020/08/04 02:35 UTC (0 seconds ago):

KAXH 040235Z AUTO 00000KT 10SM CLR 27/24 A2998 RMK AO2 T02660240

Closest aviation forecast (TAF) to Bayless Airport

Closest forecast is William P Hobby Airport, 16.6 nm (30.8 km) NNE. Retrieved 2020-08-04 00:30 UTC (2 hours ago):

TAF KHOU 032328Z 0400/0424 14005KT P6SM SCT070 SCT250 FM040200 VRB04KT P6SM FEW070 BKN250 FM042100 VRB06KT P6SM VCTS SCT050CB SCT250